createdAt,value
2018-07-11T00:00:56.081Z,99450.00
2018-07-11T00:03:00.623Z,99450.00
2018-07-11T00:05:05.189Z,99452.00
2018-07-11T00:07:09.651Z,99456.00
2018-07-11T00:09:14.151Z,99451.00
2018-07-11T00:11:18.649Z,99456.00
2018-07-11T00:13:23.194Z,99451.00
2018-07-11T00:15:27.655Z,99459.00
2018-07-11T00:17:32.200Z,99455.00
2018-07-11T00:19:36.962Z,99459.00
2018-07-11T00:21:41.533Z,99460.00
2018-07-11T00:23:46.078Z,99455.00
2018-07-11T00:25:50.762Z,99451.00
2018-07-11T00:27:56.375Z,99447.00
2018-07-11T00:30:00.944Z,99456.00
2018-07-11T00:32:05.445Z,99455.00
2018-07-11T00:34:09.970Z,99454.00
2018-07-11T00:36:14.725Z,99451.00
2018-07-11T00:38:19.470Z,99456.00
2018-07-11T00:40:23.983Z,99461.00
2018-07-11T00:42:28.554Z,99459.00
2018-07-11T00:44:33.250Z,99466.00
2018-07-11T00:46:37.807Z,99461.00
2018-07-11T00:48:42.343Z,99459.00
2018-07-11T00:50:55.438Z,99459.00
2018-07-11T00:53:00.143Z,99465.00
2018-07-11T00:55:04.699Z,99471.00
2018-07-11T00:57:09.283Z,99468.00
2018-07-11T00:59:23.769Z,99470.00
2018-07-11T01:01:31.042Z,99475.00
2018-07-11T01:03:55.069Z,99475.00
2018-07-11T01:06:00.557Z,99477.00
2018-07-11T01:08:07.703Z,99481.00
2018-07-11T01:10:15.668Z,99477.00
2018-07-11T01:12:22.850Z,99483.00
2018-07-11T01:14:28.867Z,99474.00
2018-07-11T01:16:37.213Z,99482.00
2018-07-11T01:19:08.512Z,99481.00
2018-07-11T01:21:15.428Z,99474.00
2018-07-11T01:23:21.005Z,99480.00
2018-07-11T01:25:27.443Z,99480.00
2018-07-11T01:27:35.189Z,99477.00
2018-07-11T01:29:40.993Z,99472.00
2018-07-11T01:31:47.332Z,99477.00
2018-07-11T01:33:55.138Z,99473.00
2018-07-11T01:36:02.590Z,99465.00
2018-07-11T01:38:10.853Z,99468.00
2018-07-11T01:40:16.707Z,99467.00
2018-07-11T01:42:22.346Z,99466.00
2018-07-11T01:44:29.151Z,99461.00
2018-07-11T01:46:52.953Z,99469.00
2018-07-11T01:49:00.959Z,99471.00
2018-07-11T01:51:06.526Z,99475.00
2018-07-11T01:53:14.273Z,99470.00
2018-07-11T01:55:22.330Z,99470.00
2018-07-11T01:57:29.335Z,99476.00
2018-07-11T01:59:38.023Z,99462.00
2018-07-11T02:01:45.439Z,99469.00
2018-07-11T02:03:52.342Z,99478.00
2018-07-11T02:06:01.466Z,99484.00
2018-07-11T02:08:07.230Z,99487.00
2018-07-11T02:10:14.101Z,99478.00
2018-07-11T02:12:20.065Z,99479.00
2018-07-11T02:14:26.445Z,99470.00
2018-07-11T02:16:34.254Z,99476.00
2018-07-11T02:18:42.396Z,99476.00
2018-07-11T02:20:47.518Z,99477.00
2018-07-11T02:22:54.198Z,99472.00
2018-07-11T02:24:58.734Z,99470.00
2018-07-11T02:27:03.046Z,99468.00
2018-07-11T02:29:07.663Z,99465.00
2018-07-11T02:31:12.211Z,99463.00
2018-07-11T02:33:17.617Z,99452.00
2018-07-11T02:35:22.157Z,99457.00
2018-07-11T02:37:26.630Z,99467.00
2018-07-11T02:39:31.551Z,99453.00
2018-07-11T02:41:36.034Z,99449.00
2018-07-11T02:43:40.630Z,99459.00
2018-07-11T02:45:45.148Z,99462.00
2018-07-11T02:47:49.416Z,99457.00
2018-07-11T02:49:53.945Z,99464.00
2018-07-11T02:51:58.463Z,99468.00
2018-07-11T02:54:02.705Z,99471.00
2018-07-11T02:56:06.928Z,99467.00
2018-07-11T02:58:11.440Z,99475.00
2018-07-11T03:00:16.024Z,99469.00
2018-07-11T03:02:20.629Z,99469.00
2018-07-11T03:04:25.813Z,99458.00
2018-07-11T03:06:30.396Z,99468.00
2018-07-11T03:08:37.922Z,99469.00
2018-07-11T03:10:42.394Z,99463.00
2018-07-11T03:12:46.889Z,99458.00
2018-07-11T03:14:52.518Z,99463.00
2018-07-11T03:16:57.762Z,99460.00
2018-07-11T03:19:02.215Z,99461.00
2018-07-11T03:21:06.930Z,99464.00
2018-07-11T03:23:11.459Z,99472.00
2018-07-11T03:25:16.091Z,99471.00
2018-07-11T03:27:20.599Z,99481.00
2018-07-11T03:29:25.137Z,99477.00
2018-07-11T03:31:29.577Z,99477.00
2018-07-11T03:33:34.080Z,99477.00
2018-07-11T03:35:38.620Z,99478.00
2018-07-11T03:37:43.134Z,99474.00
2018-07-11T03:39:47.678Z,99479.00
2018-07-11T03:41:52.202Z,99480.00
2018-07-11T03:43:56.762Z,99484.00
2018-07-11T03:46:01.241Z,99476.00
2018-07-11T03:48:05.845Z,99485.00
2018-07-11T03:50:10.808Z,99474.00
2018-07-11T03:52:15.306Z,99477.00
2018-07-11T03:54:19.814Z,99480.00
2018-07-11T03:56:24.215Z,99484.00
2018-07-11T03:58:28.662Z,99492.00
2018-07-11T04:00:36.206Z,99490.00
2018-07-11T04:02:42.045Z,99492.00
2018-07-11T04:04:49.184Z,99494.00
2018-07-11T04:06:54.374Z,99492.00
2018-07-11T04:09:00.876Z,99497.00
2018-07-11T04:11:07.777Z,99502.00
2018-07-11T04:13:20.345Z,99497.00
2018-07-11T04:15:27.451Z,99497.00
2018-07-11T04:17:35.046Z,99497.00
2018-07-11T04:19:44.968Z,99496.00
2018-07-11T04:21:54.310Z,99497.00
2018-07-11T04:24:01.590Z,99499.00
2018-07-11T04:26:09.593Z,99498.00
2018-07-11T04:28:14.275Z,99493.00
2018-07-11T04:30:18.897Z,99496.00
2018-07-11T04:32:23.399Z,99500.00
2018-07-11T04:34:27.935Z,99503.00
2018-07-11T04:36:32.870Z,99502.00
2018-07-11T04:38:38.482Z,99507.00
2018-07-11T04:40:43.067Z,99499.00
2018-07-11T04:42:47.615Z,99502.00
2018-07-11T04:44:52.161Z,99514.00
2018-07-11T04:46:56.770Z,99507.00
2018-07-11T04:49:01.255Z,99508.00
2018-07-11T04:51:05.996Z,99506.00
2018-07-11T04:53:11.586Z,99506.00
2018-07-11T04:55:16.143Z,99506.00
2018-07-11T04:57:21.641Z,99510.00
2018-07-11T04:59:26.226Z,99507.00
2018-07-11T05:01:30.975Z,99503.00
2018-07-11T05:03:35.389Z,99507.00
2018-07-11T05:05:39.887Z,99505.00
2018-07-11T05:07:44.330Z,99516.00
2018-07-11T05:09:48.797Z,99518.00
2018-07-11T05:11:53.215Z,99522.00
2018-07-11T05:13:58.878Z,99522.00
2018-07-11T05:16:03.325Z,99521.00
2018-07-11T05:18:07.821Z,99521.00
2018-07-11T05:20:12.323Z,99518.00
2018-07-11T05:22:16.781Z,99517.00
2018-07-11T05:24:21.270Z,99523.00
2018-07-11T05:26:25.779Z,99519.00
2018-07-11T05:28:30.238Z,99509.00
2018-07-11T05:30:34.761Z,99522.00
2018-07-11T05:32:39.212Z,99517.00
2018-07-11T05:34:43.842Z,99517.00
2018-07-11T05:36:48.334Z,99528.00
2018-07-11T05:38:52.605Z,99522.00
2018-07-11T05:40:57.084Z,99531.00
2018-07-11T05:43:01.511Z,99522.00
2018-07-11T05:45:06.075Z,99521.00
2018-07-11T05:47:10.539Z,99527.00
2018-07-11T05:49:14.981Z,99526.00
2018-07-11T05:51:20.350Z,99529.00
2018-07-11T05:53:24.904Z,99534.00
2018-07-11T05:55:29.407Z,99523.00
2018-07-11T05:57:33.595Z,99519.00
2018-07-11T05:59:38.011Z,99536.00
2018-07-11T06:01:42.499Z,99532.00
2018-07-11T06:03:46.946Z,99525.00
2018-07-11T06:05:51.506Z,99534.00
2018-07-11T06:07:56.001Z,99541.00
2018-07-11T06:10:00.286Z,99531.00
2018-07-11T06:12:04.850Z,99530.00
2018-07-11T06:14:09.370Z,99517.00
2018-07-11T06:16:13.949Z,99525.00
2018-07-11T06:18:18.614Z,99527.00
2018-07-11T06:20:23.051Z,99527.00
2018-07-11T06:22:27.185Z,99532.00
2018-07-11T06:24:31.317Z,99533.00
2018-07-11T06:26:36.105Z,99539.00
2018-07-11T06:28:40.624Z,99541.00
2018-07-11T06:30:45.117Z,99548.00
2018-07-11T06:32:49.524Z,99547.00
2018-07-11T06:34:54.895Z,99544.00
2018-07-11T06:37:01.682Z,99539.00
2018-07-11T06:39:06.953Z,99556.00
2018-07-11T06:41:11.494Z,99569.00
2018-07-11T06:43:15.962Z,99566.00
2018-07-11T06:45:20.690Z,99560.00
2018-07-11T06:47:28.942Z,99561.00
2018-07-11T06:49:33.727Z,99571.00
2018-07-11T06:51:38.287Z,99568.00
2018-07-11T06:53:42.742Z,99575.00
2018-07-11T06:55:48.278Z,99570.00
2018-07-11T06:57:52.838Z,99562.00
2018-07-11T06:59:57.242Z,99572.00
2018-07-11T07:02:01.710Z,99569.00
2018-07-11T07:04:06.174Z,99576.00
2018-07-11T07:06:10.690Z,99571.00
2018-07-11T07:08:15.339Z,99570.00
2018-07-11T07:10:20.590Z,99570.00
2018-07-11T07:12:24.722Z,99567.00
2018-07-11T07:14:29.155Z,99563.00
2018-07-11T07:16:33.763Z,99563.00
2018-07-11T07:18:38.228Z,99554.00
2018-07-11T07:20:42.354Z,99563.00
2018-07-11T07:22:46.843Z,99563.00
2018-07-11T07:24:51.474Z,99552.00
2018-07-11T07:26:55.937Z,99555.00
2018-07-11T07:29:00.793Z,99565.00
2018-07-11T07:31:05.181Z,99562.00
2018-07-11T07:33:09.694Z,99555.00
2018-07-11T07:35:16.993Z,99562.00
2018-07-11T07:37:21.570Z,99561.00
2018-07-11T07:39:26.046Z,99552.00
2018-07-11T07:41:30.612Z,99545.00
2018-07-11T07:43:35.925Z,99545.00
2018-07-11T07:45:42.862Z,99542.00
2018-07-11T07:47:48.096Z,99551.00
2018-07-11T07:49:52.714Z,99556.00
2018-07-11T07:51:57.547Z,99547.00
2018-07-11T07:54:02.177Z,99547.00
2018-07-11T07:56:06.633Z,99549.00
2018-07-11T07:58:11.245Z,99547.00
2018-07-11T08:00:15.464Z,99554.00
2018-07-11T08:02:20.657Z,99547.00
2018-07-11T08:04:25.172Z,99544.00
2018-07-11T08:06:29.409Z,99548.00
2018-07-11T08:08:33.971Z,99548.00
2018-07-11T08:10:40.837Z,99545.00
2018-07-11T08:12:45.349Z,99548.00
2018-07-11T08:14:49.806Z,99544.00
2018-07-11T08:16:54.311Z,99539.00
2018-07-11T08:18:58.762Z,99548.00
2018-07-11T08:21:03.222Z,99554.00
2018-07-11T08:23:26.603Z,99551.00
2018-07-11T08:25:48.446Z,99545.00
2018-07-11T08:28:06.018Z,99556.00
2018-07-11T08:30:29.418Z,99550.00
2018-07-11T08:34:58.031Z,99548.00
2018-07-11T08:38:25.094Z,99548.00
2018-07-11T08:40:44.879Z,99544.00
2018-07-11T08:45:14.634Z,99549.00
2018-07-11T08:47:54.001Z,99551.00
2018-07-11T08:50:18.134Z,99542.00
2018-07-11T08:53:45.361Z,99553.00
2018-07-11T08:58:11.421Z,99546.00
2018-07-11T09:02:44.514Z,99549.00
2018-07-11T09:05:24.766Z,99544.00
2018-07-11T09:10:07.839Z,99549.00
2018-07-11T09:16:10.702Z,99550.00
2018-07-11T09:19:35.949Z,99544.00
2018-07-11T09:22:33.238Z,99549.00
2018-07-11T09:24:40.921Z,99567.00
2018-07-11T09:26:45.491Z,99561.00
2018-07-11T09:28:50.383Z,99557.00
2018-07-11T09:30:54.913Z,99566.00
2018-07-11T09:32:59.453Z,99560.00
2018-07-11T09:35:04.018Z,99550.00
2018-07-11T09:37:08.604Z,99556.00
2018-07-11T09:39:13.221Z,99551.00
2018-07-11T09:41:20.700Z,99553.00
2018-07-11T09:43:25.434Z,99548.00
2018-07-11T09:45:29.939Z,99546.00
2018-07-11T09:47:34.574Z,99549.00
2018-07-11T09:49:39.723Z,99544.00
2018-07-11T09:51:44.232Z,99539.00
2018-07-11T09:53:48.781Z,99528.00
2018-07-11T09:55:53.331Z,99533.00
2018-07-11T09:57:58.144Z,99535.00
2018-07-11T10:00:02.744Z,99535.00
2018-07-11T10:02:07.290Z,99538.00
2018-07-11T10:04:14.601Z,99537.00
2018-07-11T10:06:19.254Z,99536.00
2018-07-11T10:08:24.614Z,99533.00
2018-07-11T10:10:29.101Z,99542.00
2018-07-11T10:12:33.815Z,99547.00
2018-07-11T10:14:38.258Z,99533.00
2018-07-11T10:16:42.747Z,99535.00
2018-07-11T10:19:03.823Z,99527.00
2018-07-11T10:21:08.274Z,99526.00
2018-07-11T10:23:12.817Z,99529.00
2018-07-11T10:25:17.303Z,99523.00
2018-07-11T10:27:21.833Z,99517.00
2018-07-11T10:29:26.465Z,99519.00
2018-07-11T10:31:31.115Z,99520.00
2018-07-11T10:33:35.621Z,99528.00
2018-07-11T10:35:40.167Z,99526.00
2018-07-11T10:37:44.927Z,99524.00
2018-07-11T10:39:49.482Z,99520.00
2018-07-11T10:41:53.988Z,99523.00
2018-07-11T10:43:58.509Z,99528.00
2018-07-11T10:46:03.027Z,99525.00
2018-07-11T10:48:07.541Z,99513.00
2018-07-11T10:50:12.142Z,99513.00
2018-07-11T10:52:16.628Z,99508.00
2018-07-11T10:54:21.254Z,99505.00
2018-07-11T10:56:26.893Z,99505.00
2018-07-11T10:58:31.397Z,99493.00
2018-07-11T11:00:37.196Z,99501.00
2018-07-11T11:02:40.119Z,99497.00
2018-07-11T11:04:44.718Z,99493.00
2018-07-11T11:06:49.047Z,99490.00
2018-07-11T11:08:53.628Z,99490.00
2018-07-11T11:10:58.176Z,99487.00
2018-07-11T11:13:02.608Z,99497.00
2018-07-11T11:15:07.248Z,99488.00
2018-07-11T11:17:14.742Z,99481.00
2018-07-11T11:19:23.295Z,99484.00
2018-07-11T11:21:27.953Z,99484.00
2018-07-11T11:23:32.398Z,99478.00
2018-07-11T11:25:37.037Z,99482.00
2018-07-11T11:27:47.237Z,99483.00
2018-07-11T11:29:53.692Z,99482.00
2018-07-11T11:31:58.727Z,99485.00
2018-07-11T11:34:03.184Z,99477.00
2018-07-11T11:36:07.759Z,99477.00
2018-07-11T11:38:12.304Z,99485.00
2018-07-11T11:40:16.865Z,99475.00
2018-07-11T11:42:22.304Z,99482.00
2018-07-11T11:44:26.671Z,99489.00
2018-07-11T11:46:31.179Z,99480.00
2018-07-11T11:48:35.811Z,99484.00
2018-07-11T11:50:40.519Z,99480.00
2018-07-11T11:52:46.248Z,99484.00
2018-07-11T11:54:50.494Z,99487.00
2018-07-11T11:56:54.978Z,99493.00
2018-07-11T11:58:59.398Z,99486.00
2018-07-11T12:01:03.904Z,99476.00
2018-07-11T12:03:09.823Z,99482.00
2018-07-11T12:05:14.410Z,99482.00
2018-07-11T12:07:19.070Z,99480.00
2018-07-11T12:09:23.443Z,99470.00
2018-07-11T12:11:27.959Z,99474.00
2018-07-11T12:13:32.368Z,99468.00
2018-07-11T12:15:36.901Z,99475.00
2018-07-11T12:17:41.183Z,99480.00
2018-07-11T12:19:46.581Z,99477.00
2018-07-11T12:21:51.056Z,99474.00
2018-07-11T12:23:55.636Z,99474.00
2018-07-11T12:26:10.170Z,99468.00
2018-07-11T12:28:14.757Z,99463.00
2018-07-11T12:30:19.247Z,99457.00
2018-07-11T12:32:23.775Z,99459.00
2018-07-11T12:34:28.850Z,99457.00
2018-07-11T12:36:33.334Z,99457.00
2018-07-11T12:38:37.810Z,99458.00
2018-07-11T12:40:42.319Z,99460.00
2018-07-11T12:42:46.493Z,99463.00
2018-07-11T12:44:51.040Z,99462.00
2018-07-11T12:46:55.674Z,99471.00
2018-07-11T12:49:06.525Z,99476.00
2018-07-11T12:51:14.213Z,99482.00
2018-07-11T12:53:18.879Z,99479.00
2018-07-11T12:55:23.382Z,99490.00
2018-07-11T12:57:28.057Z,99490.00
2018-07-11T12:59:32.168Z,99491.00
2018-07-11T13:01:37.855Z,99500.00
2018-07-11T13:03:42.443Z,99501.00
2018-07-11T13:05:47.058Z,99506.00
2018-07-11T13:07:51.597Z,99486.00
2018-07-11T13:09:56.131Z,99487.00
2018-07-11T13:12:00.962Z,99491.00
2018-07-11T13:14:05.523Z,99491.00
2018-07-11T13:16:10.139Z,99488.00
2018-07-11T13:18:14.581Z,99486.00
2018-07-11T13:20:19.039Z,99489.00
2018-07-11T13:22:23.524Z,99492.00
2018-07-11T13:24:28.058Z,99491.00
2018-07-11T13:26:32.549Z,99493.00
2018-07-11T13:28:37.100Z,99483.00
2018-07-11T13:30:41.599Z,99491.00
2018-07-11T13:32:46.167Z,99484.00
2018-07-11T13:34:50.570Z,99485.00
2018-07-11T13:36:54.893Z,99485.00
2018-07-11T13:38:59.386Z,99468.00
2018-07-11T13:41:03.930Z,99480.00
2018-07-11T13:43:09.079Z,99470.00
2018-07-11T13:45:13.566Z,99472.00
2018-07-11T13:47:23.240Z,99475.00
2018-07-11T13:49:27.406Z,99470.00
2018-07-11T13:51:31.844Z,99464.00
2018-07-11T13:53:36.353Z,99470.00
2018-07-11T13:55:40.893Z,99476.00
2018-07-11T13:57:45.982Z,99478.00
2018-07-11T13:59:50.549Z,99476.00
2018-07-11T14:01:55.143Z,99468.00
2018-07-11T14:03:59.966Z,99471.00
2018-07-11T14:06:12.205Z,99469.00
2018-07-11T14:08:17.779Z,99476.00
2018-07-11T14:10:25.306Z,99476.00
2018-07-11T14:12:34.107Z,99473.00
2018-07-11T14:14:40.378Z,99477.00
2018-07-11T14:16:45.075Z,99473.00
2018-07-11T14:18:50.871Z,99480.00
2018-07-11T14:20:55.746Z,99469.00
2018-07-11T14:23:07.623Z,99464.00
2018-07-11T14:25:12.300Z,99455.00
2018-07-11T14:27:16.910Z,99468.00
2018-07-11T14:29:23.988Z,99463.00
2018-07-11T14:31:32.060Z,99465.00
2018-07-11T14:33:36.686Z,99463.00
2018-07-11T14:35:41.273Z,99468.00
2018-07-11T14:37:46.594Z,99468.00
2018-07-11T14:39:51.108Z,99468.00
2018-07-11T14:41:55.747Z,99460.00
2018-07-11T14:44:00.813Z,99468.00
2018-07-11T14:46:06.022Z,99473.00
2018-07-11T14:48:14.060Z,99468.00
2018-07-11T14:50:18.830Z,99454.00
2018-07-11T14:52:23.534Z,99465.00
2018-07-11T14:54:28.131Z,99461.00
2018-07-11T14:56:35.075Z,99462.00
2018-07-11T14:58:39.661Z,99458.00
2018-07-11T15:00:44.163Z,99451.00
2018-07-11T15:02:48.747Z,99451.00
2018-07-11T15:04:53.387Z,99454.00
2018-07-11T15:06:57.999Z,99448.00
2018-07-11T15:09:02.828Z,99443.00
2018-07-11T15:11:08.923Z,99450.00
2018-07-11T15:13:14.508Z,99444.00
2018-07-11T15:15:19.070Z,99443.00
2018-07-11T15:17:23.759Z,99454.00
2018-07-11T15:19:28.342Z,99449.00
2018-07-11T15:21:32.922Z,99447.00
2018-07-11T15:23:38.286Z,99450.00
2018-07-11T15:25:42.844Z,99437.00
2018-07-11T15:27:47.451Z,99441.00
2018-07-11T15:29:51.986Z,99441.00
2018-07-11T15:31:56.525Z,99434.00
2018-07-11T15:34:01.102Z,99446.00
2018-07-11T15:36:05.594Z,99432.00
2018-07-11T15:38:10.181Z,99439.00
2018-07-11T15:40:15.311Z,99438.00
2018-07-11T15:42:19.882Z,99437.00
2018-07-11T15:44:24.889Z,99438.00
2018-07-11T15:46:29.395Z,99428.00
2018-07-11T15:48:34.099Z,99430.00
2018-07-11T15:50:38.924Z,99432.00
2018-07-11T15:52:43.551Z,99429.00
2018-07-11T15:54:48.176Z,99440.00
2018-07-11T15:56:52.892Z,99433.00
2018-07-11T15:59:09.392Z,99422.00
2018-07-11T16:01:13.808Z,99430.00
2018-07-11T16:03:19.538Z,99422.00
2018-07-11T16:05:25.683Z,99425.00
2018-07-11T16:07:30.366Z,99415.00
2018-07-11T16:09:49.387Z,99420.00
2018-07-11T16:11:53.942Z,99422.00
2018-07-11T16:13:58.771Z,99416.00
2018-07-11T16:16:03.316Z,99417.00
2018-07-11T16:18:08.910Z,99422.00
2018-07-11T16:20:13.629Z,99424.00
2018-07-11T16:22:20.017Z,99424.00
2018-07-11T16:24:24.965Z,99417.00
2018-07-11T16:26:30.233Z,99420.00
2018-07-11T16:28:35.751Z,99427.00
2018-07-11T16:30:40.311Z,99425.00
2018-07-11T16:32:44.818Z,99416.00
2018-07-11T16:34:49.409Z,99416.00
2018-07-11T16:36:54.157Z,99426.00
2018-07-11T16:38:59.102Z,99414.00
2018-07-11T16:41:03.795Z,99416.00
2018-07-11T16:43:08.296Z,99423.00
2018-07-11T16:45:12.827Z,99425.00
2018-07-11T16:47:17.725Z,99427.00
2018-07-11T16:49:22.330Z,99421.00
2018-07-11T16:51:26.915Z,99421.00
2018-07-11T16:53:31.517Z,99417.00
2018-07-11T16:55:38.024Z,99415.00
2018-07-11T16:57:50.186Z,99420.00
2018-07-11T17:00:07.314Z,99418.00
2018-07-11T17:02:11.966Z,99417.00
2018-07-11T17:04:16.548Z,99413.00
2018-07-11T17:06:21.155Z,99416.00
2018-07-11T17:08:36.681Z,99414.00
2018-07-11T17:10:43.542Z,99423.00
2018-07-11T17:12:54.438Z,99421.00
2018-07-11T17:15:00.913Z,99424.00
2018-07-11T17:17:06.174Z,99424.00
2018-07-11T17:19:23.379Z,99421.00
2018-07-11T17:21:41.204Z,99424.00
2018-07-11T17:23:52.284Z,99421.00
2018-07-11T17:25:56.895Z,99422.00
2018-07-11T17:28:03.514Z,99416.00
2018-07-11T17:30:07.973Z,99415.00
2018-07-11T17:32:13.345Z,99417.00
2018-07-11T17:34:18.178Z,99417.00
2018-07-11T17:36:22.705Z,99413.00
2018-07-11T17:38:31.252Z,99427.00
2018-07-11T17:40:40.207Z,99429.00
2018-07-11T17:42:45.831Z,99427.00
2018-07-11T17:45:23.033Z,99427.00
2018-07-11T17:47:27.565Z,99433.00
2018-07-11T17:49:35.237Z,99422.00
2018-07-11T17:52:04.082Z,99430.00
2018-07-11T17:54:08.697Z,99429.00
2018-07-11T17:56:14.597Z,99426.00
2018-07-11T17:58:20.922Z,99430.00
2018-07-11T18:00:49.734Z,99427.00
2018-07-11T18:03:05.967Z,99428.00
2018-07-11T18:05:25.841Z,99429.00
2018-07-11T18:07:45.270Z,99425.00
2018-07-11T18:10:00.161Z,99432.00
2018-07-11T18:12:22.216Z,99426.00
2018-07-11T18:14:44.039Z,99436.00
2018-07-11T18:17:04.336Z,99429.00
2018-07-11T18:20:25.883Z,99431.00
2018-07-11T18:22:57.665Z,99429.00
2018-07-11T18:25:26.998Z,99435.00
2018-07-11T18:31:02.937Z,99436.00
2018-07-11T18:33:39.167Z,99431.00
2018-07-11T18:36:10.674Z,99429.00
2018-07-11T18:38:24.477Z,99435.00
2018-07-11T18:40:38.380Z,99439.00
2018-07-11T18:42:59.568Z,99435.00
2018-07-11T18:45:17.564Z,99424.00
2018-07-11T18:47:39.452Z,99435.00
2018-07-11T18:52:33.290Z,99426.00
2018-07-11T18:54:57.225Z,99428.00
2018-07-11T18:57:09.792Z,99424.00
2018-07-11T18:59:30.009Z,99431.00
2018-07-11T19:01:49.118Z,99429.00
2018-07-11T19:05:09.547Z,99419.00
2018-07-11T19:07:34.304Z,99421.00
2018-07-11T19:09:53.728Z,99435.00
2018-07-11T19:13:04.618Z,99430.00
2018-07-11T19:15:13.902Z,99419.00
2018-07-11T19:17:28.536Z,99420.00
2018-07-11T19:19:43.709Z,99429.00
2018-07-11T19:21:58.619Z,99449.00
2018-07-11T19:24:09.040Z,99444.00
2018-07-11T19:26:28.501Z,99452.00
2018-07-11T19:29:52.863Z,99451.00
2018-07-11T19:32:10.271Z,99444.00
2018-07-11T19:36:42.782Z,99449.00
2018-07-11T19:39:12.266Z,99459.00
2018-07-11T19:41:25.630Z,99462.00
2018-07-11T19:47:04.432Z,99463.00
2018-07-11T19:49:37.553Z,99466.00
2018-07-11T19:54:00.542Z,99462.00
2018-07-11T19:57:11.535Z,99470.00
2018-07-11T19:59:16.266Z,99471.00
2018-07-11T20:01:20.827Z,99472.00
2018-07-11T20:03:25.544Z,99468.00
2018-07-11T20:07:39.452Z,99475.00
2018-07-11T20:09:44.906Z,99478.00
2018-07-11T20:11:50.531Z,99484.00
2018-07-11T20:13:55.482Z,99479.00
2018-07-11T20:16:00.035Z,99486.00
2018-07-11T20:18:05.282Z,99476.00
2018-07-11T20:20:09.749Z,99480.00
2018-07-11T20:22:15.089Z,99475.00
2018-07-11T20:24:19.784Z,99482.00
2018-07-11T20:26:24.507Z,99483.00
2018-07-11T20:28:29.062Z,99474.00
2018-07-11T20:30:33.702Z,99476.00
2018-07-11T20:32:38.533Z,99473.00
2018-07-11T20:34:43.687Z,99482.00
2018-07-11T20:36:48.762Z,99484.00
2018-07-11T20:38:53.333Z,99484.00
2018-07-11T20:40:57.829Z,99488.00
2018-07-11T20:43:02.599Z,99482.00
2018-07-11T20:45:07.255Z,99488.00
2018-07-11T20:47:11.751Z,99495.00
2018-07-11T20:49:21.804Z,99491.00
2018-07-11T20:51:26.269Z,99495.00
2018-07-11T20:53:30.737Z,99495.00
2018-07-11T20:55:36.278Z,99498.00
2018-07-11T20:57:40.938Z,99491.00
2018-07-11T21:00:02.505Z,99491.00
2018-07-11T21:02:24.163Z,99490.00
2018-07-11T21:06:47.795Z,99490.00
2018-07-11T21:11:13.920Z,99490.00
2018-07-11T21:13:38.131Z,99486.00
2018-07-11T21:16:58.320Z,99493.00
2018-07-11T21:19:09.459Z,99490.00
2018-07-11T21:21:14.002Z,99498.00
2018-07-11T21:23:18.545Z,99493.00
2018-07-11T21:25:23.483Z,99499.00
2018-07-11T21:27:27.970Z,99496.00
2018-07-11T21:29:32.486Z,99502.00
2018-07-11T21:31:37.026Z,99498.00
2018-07-11T21:33:41.502Z,99495.00
2018-07-11T21:35:46.386Z,99501.00
2018-07-11T21:37:51.114Z,99496.00
2018-07-11T21:39:55.651Z,99496.00
2018-07-11T21:42:00.599Z,99491.00
2018-07-11T21:44:05.160Z,99498.00
2018-07-11T21:46:09.626Z,99495.00
2018-07-11T21:48:14.101Z,99498.00
2018-07-11T21:50:18.638Z,99508.00
2018-07-11T21:52:23.990Z,99505.00
2018-07-11T21:54:28.438Z,99502.00
2018-07-11T21:56:32.893Z,99498.00
2018-07-11T21:58:37.470Z,99500.00
2018-07-11T22:00:42.230Z,99504.00
2018-07-11T22:02:46.621Z,99502.00
2018-07-11T22:04:50.870Z,99499.00
2018-07-11T22:06:55.386Z,99505.00
2018-07-11T22:08:59.849Z,99509.00
2018-07-11T22:11:04.314Z,99505.00
2018-07-11T22:13:09.466Z,99496.00
2018-07-11T22:15:13.914Z,99502.00
2018-07-11T22:17:31.490Z,99505.00
2018-07-11T22:19:35.402Z,99503.00
2018-07-11T22:21:38.131Z,99497.00
2018-07-11T22:23:42.258Z,99502.00
2018-07-11T22:25:44.983Z,99501.00
2018-07-11T22:27:48.186Z,99502.00
2018-07-11T22:29:50.898Z,99508.00
2018-07-11T22:31:53.626Z,99504.00
2018-07-11T22:33:56.432Z,99502.00
2018-07-11T22:35:59.206Z,99503.00
2018-07-11T22:38:03.445Z,99498.00
2018-07-11T22:40:06.153Z,99497.00
2018-07-11T22:42:08.859Z,99489.00
2018-07-11T22:44:11.610Z,99492.00
2018-07-11T22:46:14.314Z,99491.00
2018-07-11T22:48:17.090Z,99494.00
2018-07-11T22:50:19.790Z,99493.00
2018-07-11T22:52:22.815Z,99492.00
2018-07-11T22:54:25.583Z,99497.00
2018-07-11T22:56:28.306Z,99498.00
2018-07-11T22:58:31.066Z,99492.00
2018-07-11T23:00:33.790Z,99493.00
2018-07-11T23:02:36.521Z,99492.00
2018-07-11T23:04:39.318Z,99495.00
2018-07-11T23:06:42.969Z,99496.00
2018-07-11T23:08:45.710Z,99507.00
2018-07-11T23:10:48.441Z,99505.00
2018-07-11T23:12:51.170Z,99510.00
2018-07-11T23:14:53.954Z,99500.00
2018-07-11T23:16:57.662Z,99498.00
2018-07-11T23:19:00.407Z,99502.00
2018-07-11T23:21:03.130Z,99511.00
2018-07-11T23:23:05.843Z,99498.00
2018-07-11T23:25:08.590Z,99504.00
2018-07-11T23:27:11.656Z,99508.00
2018-07-11T23:29:14.427Z,99514.00
2018-07-11T23:31:17.138Z,99520.00
2018-07-11T23:33:19.866Z,99520.00
2018-07-11T23:35:23.253Z,99519.00
2018-07-11T23:37:25.997Z,99521.00
2018-07-11T23:39:28.747Z,99516.00
2018-07-11T23:41:31.472Z,99522.00
2018-07-11T23:43:34.196Z,99512.00
2018-07-11T23:45:36.938Z,99513.00
2018-07-11T23:47:39.662Z,99519.00
2018-07-11T23:49:43.365Z,99516.00
2018-07-11T23:51:46.104Z,99522.00
2018-07-11T23:53:49.226Z,99528.00
2018-07-11T23:55:53.762Z,99532.00
2018-07-11T23:57:56.483Z,99529.00
2018-07-11T23:59:59.227Z,99527.00
